sensor_id;sensor_type;location;lat;lon;timestamp;temperature;humidity
18189;DHT22;9219;50.396;8.546;2023-05-03T00:01:37;8.60;99.90
18189;DHT22;9219;50.396;8.546;2023-05-03T00:04:06;8.60;99.90
18189;DHT22;9219;50.396;8.546;2023-05-03T00:06:49;8.60;99.90
18189;DHT22;9219;50.396;8.546;2023-05-03T00:09:20;8.40;99.90
18189;DHT22;9219;50.396;8.546;2023-05-03T00:11:48;8.40;99.90
18189;DHT22;9219;50.396;8.546;2023-05-03T00:14:15;8.40;99.90
18189;DHT22;9219;50.396;8.546;2023-05-03T00:16:43;8.30;99.90
18189;DHT22;9219;50.396;8.546;2023-05-03T00:19:10;8.30;99.90
18189;DHT22;9219;50.396;8.546;2023-05-03T00:21:57;8.30;99.90
18189;DHT22;9219;50.396;8.546;2023-05-03T00:32:32;8.30;99.90
18189;DHT22;9219;50.396;8.546;2023-05-03T00:34:59;8.40;99.90
18189;DHT22;9219;50.396;8.546;2023-05-03T00:37:27;8.40;99.90
18189;DHT22;9219;50.396;8.546;2023-05-03T00:39:55;8.40;99.90
18189;DHT22;9219;50.396;8.546;2023-05-03T00:42:22;8.20;99.90
18189;DHT22;9219;50.396;8.546;2023-05-03T00:44:49;8.30;99.90
18189;DHT22;9219;50.396;8.546;2023-05-03T00:47:18;8.30;99.90
18189;DHT22;9219;50.396;8.546;2023-05-03T00:49:47;8.30;99.90
18189;DHT22;9219;50.396;8.546;2023-05-03T00:57:35;8.20;99.90
18189;DHT22;9219;50.396;8.546;2023-05-03T01:00:03;8.20;99.90
18189;DHT22;9219;50.396;8.546;2023-05-03T01:02:31;8.10;99.90
18189;DHT22;9219;50.396;8.546;2023-05-03T01:04:59;8.00;99.90
18189;DHT22;9219;50.396;8.546;2023-05-03T01:07:35;8.00;99.90
18189;DHT22;9219;50.396;8.546;2023-05-03T01:10:12;8.00;99.90
18189;DHT22;9219;50.396;8.546;2023-05-03T01:12:51;8.10;99.90
18189;DHT22;9219;50.396;8.546;2023-05-03T01:23:10;8.10;99.90
18189;DHT22;9219;50.396;8.546;2023-05-03T01:25:41;8.10;99.90
18189;DHT22;9219;50.396;8.546;2023-05-03T01:28:09;8.00;99.90
18189;DHT22;9219;50.396;8.546;2023-05-03T01:30:37;8.10;99.90
18189;DHT22;9219;50.396;8.546;2023-05-03T01:33:10;8.00;99.90
18189;DHT22;9219;50.396;8.546;2023-05-03T01:35:43;8.00;99.90
18189;DHT22;9219;50.396;8.546;2023-05-03T01:38:12;7.90;99.90
18189;DHT22;9219;50.396;8.546;2023-05-03T01:43:31;7.90;99.90
18189;DHT22;9219;50.396;8.546;2023-05-03T01:45:59;7.90;99.90
18189;DHT22;9219;50.396;8.546;2023-05-03T01:48:26;8.00;99.90
18189;DHT22;9219;50.396;8.546;2023-05-03T01:50:54;7.90;99.90
18189;DHT22;9219;50.396;8.546;2023-05-03T01:53:21;7.90;99.90
18189;DHT22;9219;50.396;8.546;2023-05-03T01:55:48;7.80;99.90
18189;DHT22;9219;50.396;8.546;2023-05-03T01:58:16;7.80;99.90
18189;DHT22;9219;50.396;8.546;2023-05-03T02:03:25;7.70;99.90
18189;DHT22;9219;50.396;8.546;2023-05-03T02:05:52;7.80;99.90
18189;DHT22;9219;50.396;8.546;2023-05-03T02:08:20;7.80;99.90
18189;DHT22;9219;50.396;8.546;2023-05-03T02:10:47;7.70;99.90
18189;DHT22;9219;50.396;8.546;2023-05-03T02:13:14;7.70;99.90
18189;DHT22;9219;50.396;8.546;2023-05-03T02:15:42;7.70;99.90
18189;DHT22;9219;50.396;8.546;2023-05-03T02:18:09;7.70;99.90
18189;DHT22;9219;50.396;8.546;2023-05-03T02:20:38;7.70;99.90
18189;DHT22;9219;50.396;8.546;2023-05-03T02:23:22;7.80;99.90
18189;DHT22;9219;50.396;8.546;2023-05-03T02:25:49;7.70;99.90
18189;DHT22;9219;50.396;8.546;2023-05-03T02:28:16;7.60;99.90
18189;DHT22;9219;50.396;8.546;2023-05-03T02:30:44;7.60;99.90
18189;DHT22;9219;50.396;8.546;2023-05-03T02:33:11;7.50;99.90
18189;DHT22;9219;50.396;8.546;2023-05-03T02:35:38;7.50;99.90
18189;DHT22;9219;50.396;8.546;2023-05-03T02:38:06;7.60;99.90
18189;DHT22;9219;50.396;8.546;2023-05-03T02:48:22;7.30;99.90
18189;DHT22;9219;50.396;8.546;2023-05-03T02:50:49;7.30;99.90
18189;DHT22;9219;50.396;8.546;2023-05-03T02:53:16;7.40;99.90
18189;DHT22;9219;50.396;8.546;2023-05-03T02:55:44;7.40;99.90
18189;DHT22;9219;50.396;8.546;2023-05-03T02:58:11;7.50;99.90
18189;DHT22;9219;50.396;8.546;2023-05-03T03:00:39;7.30;99.90
18189;DHT22;9219;50.396;8.546;2023-05-03T03:03:06;7.30;99.90
18189;DHT22;9219;50.396;8.546;2023-05-03T03:05:35;7.40;99.90
18189;DHT22;9219;50.396;8.546;2023-05-03T03:13:03;7.40;99.90
18189;DHT22;9219;50.396;8.546;2023-05-03T03:15:30;7.20;99.90
18189;DHT22;9219;50.396;8.546;2023-05-03T03:17:57;7.20;99.90
18189;DHT22;9219;50.396;8.546;2023-05-03T03:20:25;7.20;99.90
18189;DHT22;9219;50.396;8.546;2023-05-03T03:22:52;7.20;99.90
18189;DHT22;9219;50.396;8.546;2023-05-03T03:25:19;7.20;99.90
18189;DHT22;9219;50.396;8.546;2023-05-03T03:27:47;7.10;99.90
18189;DHT22;9219;50.396;8.546;2023-05-03T03:30:16;7.00;99.90
18189;DHT22;9219;50.396;8.546;2023-05-03T03:37:49;7.00;99.90
18189;DHT22;9219;50.396;8.546;2023-05-03T03:40:20;7.00;99.90
18189;DHT22;9219;50.396;8.546;2023-05-03T03:42:48;6.80;99.90
18189;DHT22;9219;50.396;8.546;2023-05-03T03:45:15;6.90;99.90
18189;DHT22;9219;50.396;8.546;2023-05-03T03:47:42;6.90;99.90
18189;DHT22;9219;50.396;8.546;2023-05-03T03:50:10;6.90;99.90
18189;DHT22;9219;50.396;8.546;2023-05-03T03:52:38;6.90;99.90
18189;DHT22;9219;50.396;8.546;2023-05-03T04:02:32;7.00;99.90
18189;DHT22;9219;50.396;8.546;2023-05-03T04:04:59;7.10;99.90
18189;DHT22;9219;50.396;8.546;2023-05-03T04:07:26;7.00;99.90
18189;DHT22;9219;50.396;8.546;2023-05-03T04:09:54;6.90;99.90
18189;DHT22;9219;50.396;8.546;2023-05-03T04:12:25;6.80;99.90
18189;DHT22;9219;50.396;8.546;2023-05-03T04:14:52;6.70;99.90
18189;DHT22;9219;50.396;8.546;2023-05-03T04:17:20;6.70;99.90
18189;DHT22;9219;50.396;8.546;2023-05-03T04:26:59;6.90;99.90
18189;DHT22;9219;50.396;8.546;2023-05-03T04:29:29;6.80;99.90
18189;DHT22;9219;50.396;8.546;2023-05-03T04:31:57;6.80;99.90
18189;DHT22;9219;50.396;8.546;2023-05-03T04:34:26;6.80;99.90
18189;DHT22;9219;50.396;8.546;2023-05-03T04:36:55;6.90;99.90
18189;DHT22;9219;50.396;8.546;2023-05-03T04:39:23;6.90;99.90
18189;DHT22;9219;50.396;8.546;2023-05-03T04:41:51;6.80;99.90
18189;DHT22;9219;50.396;8.546;2023-05-03T04:49:22;6.90;99.90
18189;DHT22;9219;50.396;8.546;2023-05-03T04:51:49;7.00;99.90
18189;DHT22;9219;50.396;8.546;2023-05-03T04:54:17;6.90;99.90
18189;DHT22;9219;50.396;8.546;2023-05-03T04:56:44;7.00;99.90
18189;DHT22;9219;50.396;8.546;2023-05-03T04:59:12;7.00;99.90
18189;DHT22;9219;50.396;8.546;2023-05-03T05:01:39;7.10;99.90
18189;DHT22;9219;50.396;8.546;2023-05-03T05:04:07;7.10;99.90
18189;DHT22;9219;50.396;8.546;2023-05-03T05:06:36;7.20;99.90
18189;DHT22;9219;50.396;8.546;2023-05-03T05:09:23;7.00;99.90
18189;DHT22;9219;50.396;8.546;2023-05-03T05:11:51;7.00;99.90
18189;DHT22;9219;50.396;8.546;2023-05-03T05:14:22;6.90;99.90
18189;DHT22;9219;50.396;8.546;2023-05-03T05:16:50;7.00;99.90
18189;DHT22;9219;50.396;8.546;2023-05-03T05:19:17;7.00;99.90
18189;DHT22;9219;50.396;8.546;2023-05-03T05:21:45;7.10;99.90
18189;DHT22;9219;50.396;8.546;2023-05-03T05:24:12;7.30;99.90
18189;DHT22;9219;50.396;8.546;2023-05-03T05:26:42;7.20;99.90
18189;DHT22;9219;50.396;8.546;2023-05-03T05:34:16;7.50;99.90
18189;DHT22;9219;50.396;8.546;2023-05-03T05:36:43;7.50;99.90
18189;DHT22;9219;50.396;8.546;2023-05-03T05:39:10;7.60;99.90
18189;DHT22;9219;50.396;8.546;2023-05-03T05:41:38;7.50;99.90
18189;DHT22;9219;50.396;8.546;2023-05-03T05:44:05;7.50;99.90
18189;DHT22;9219;50.396;8.546;2023-05-03T05:46:33;7.70;99.90
18189;DHT22;9219;50.396;8.546;2023-05-03T05:49:03;7.70;99.90
18189;DHT22;9219;50.396;8.546;2023-05-03T05:51:32;7.80;99.90
18189;DHT22;9219;50.396;8.546;2023-05-03T05:59:19;7.90;99.90
18189;DHT22;9219;50.396;8.546;2023-05-03T06:01:47;8.00;99.90
18189;DHT22;9219;50.396;8.546;2023-05-03T06:04:14;8.00;99.90
18189;DHT22;9219;50.396;8.546;2023-05-03T06:06:41;8.10;99.90
18189;DHT22;9219;50.396;8.546;2023-05-03T06:09:09;8.10;99.90
18189;DHT22;9219;50.396;8.546;2023-05-03T06:11:50;8.00;99.90
18189;DHT22;9219;50.396;8.546;2023-05-03T06:14:18;8.00;99.90
18189;DHT22;9219;50.396;8.546;2023-05-03T06:16:45;7.90;99.90
18189;DHT22;9219;50.396;8.546;2023-05-03T06:24:18;8.20;99.90
18189;DHT22;9219;50.396;8.546;2023-05-03T06:26:47;8.10;99.90
18189;DHT22;9219;50.396;8.546;2023-05-03T06:29:15;8.30;99.90
18189;DHT22;9219;50.396;8.546;2023-05-03T06:31:43;8.40;99.90
18189;DHT22;9219;50.396;8.546;2023-05-03T06:34:11;8.40;99.90
18189;DHT22;9219;50.396;8.546;2023-05-03T06:36:38;8.60;99.90
18189;DHT22;9219;50.396;8.546;2023-05-03T06:39:06;8.60;99.90
18189;DHT22;9219;50.396;8.546;2023-05-03T06:44:13;8.70;99.90
18189;DHT22;9219;50.396;8.546;2023-05-03T06:46:41;8.90;99.90
18189;DHT22;9219;50.396;8.546;2023-05-03T06:49:08;8.90;99.90
18189;DHT22;9219;50.396;8.546;2023-05-03T06:51:35;8.90;99.90
18189;DHT22;9219;50.396;8.546;2023-05-03T06:54:03;9.00;99.90
18189;DHT22;9219;50.396;8.546;2023-05-03T06:56:35;9.10;99.90
18189;DHT22;9219;50.396;8.546;2023-05-03T06:59:02;9.20;99.90
18189;DHT22;9219;50.396;8.546;2023-05-03T07:09:42;9.40;99.90
18189;DHT22;9219;50.396;8.546;2023-05-03T07:12:10;9.50;99.90
18189;DHT22;9219;50.396;8.546;2023-05-03T07:14:38;9.40;99.90
18189;DHT22;9219;50.396;8.546;2023-05-03T07:17:05;9.40;99.90
18189;DHT22;9219;50.396;8.546;2023-05-03T07:19:35;9.50;99.90
18189;DHT22;9219;50.396;8.546;2023-05-03T07:22:02;9.70;99.90
18189;DHT22;9219;50.396;8.546;2023-05-03T07:24:30;9.90;99.90
18189;DHT22;9219;50.396;8.546;2023-05-03T07:27:13;9.70;99.90
18189;DHT22;9219;50.396;8.546;2023-05-03T07:34:47;9.50;99.90
18189;DHT22;9219;50.396;8.546;2023-05-03T07:37:14;9.90;99.90
18189;DHT22;9219;50.396;8.546;2023-05-03T07:39:42;10.10;99.90
18189;DHT22;9219;50.396;8.546;2023-05-03T07:42:10;9.90;99.90
18189;DHT22;9219;50.396;8.546;2023-05-03T07:44:38;9.50;99.90
18189;DHT22;9219;50.396;8.546;2023-05-03T07:47:05;9.70;99.90
18189;DHT22;9219;50.396;8.546;2023-05-03T07:49:33;9.30;99.90
18189;DHT22;9219;50.396;8.546;2023-05-03T07:52:18;9.40;99.90
18189;DHT22;9219;50.396;8.546;2023-05-03T07:59:50;9.40;99.90
18189;DHT22;9219;50.396;8.546;2023-05-03T08:02:17;9.00;99.90
18189;DHT22;9219;50.396;8.546;2023-05-03T08:04:45;8.80;99.90
18189;DHT22;9219;50.396;8.546;2023-05-03T08:07:13;8.90;99.90
18189;DHT22;9219;50.396;8.546;2023-05-03T08:09:41;9.30;99.90
18189;DHT22;9219;50.396;8.546;2023-05-03T08:12:08;9.60;99.90
18189;DHT22;9219;50.396;8.546;2023-05-03T08:14:35;9.30;99.90
18189;DHT22;9219;50.396;8.546;2023-05-03T08:17:04;9.20;99.90
18189;DHT22;9219;50.396;8.546;2023-05-03T08:24:35;9.90;99.90
18189;DHT22;9219;50.396;8.546;2023-05-03T08:27:03;9.80;99.90
18189;DHT22;9219;50.396;8.546;2023-05-03T08:29:31;9.80;99.90
18189;DHT22;9219;50.396;8.546;2023-05-03T08:31:58;9.90;99.90
18189;DHT22;9219;50.396;8.546;2023-05-03T08:34:27;10.10;99.90
18189;DHT22;9219;50.396;8.546;2023-05-03T08:36:54;10.50;99.90
18189;DHT22;9219;50.396;8.546;2023-05-03T08:39:23;10.80;99.90
18189;DHT22;9219;50.396;8.546;2023-05-03T08:44:35;11.00;99.90
18189;DHT22;9219;50.396;8.546;2023-05-03T08:47:03;11.50;99.90
18189;DHT22;9219;50.396;8.546;2023-05-03T08:49:32;11.40;99.90
18189;DHT22;9219;50.396;8.546;2023-05-03T08:52:01;10.90;99.90
18189;DHT22;9219;50.396;8.546;2023-05-03T08:54:29;11.20;99.90
18189;DHT22;9219;50.396;8.546;2023-05-03T08:56:56;12.00;99.90
18189;DHT22;9219;50.396;8.546;2023-05-03T08:59:23;13.00;99.90
18189;DHT22;9219;50.396;8.546;2023-05-03T09:04:49;12.70;99.90
18189;DHT22;9219;50.396;8.546;2023-05-03T09:07:17;12.70;99.90
18189;DHT22;9219;50.396;8.546;2023-05-03T09:09:45;13.30;99.90
18189;DHT22;9219;50.396;8.546;2023-05-03T09:12:32;14.10;99.90
18189;DHT22;9219;50.396;8.546;2023-05-03T09:15:01;15.10;99.90
18189;DHT22;9219;50.396;8.546;2023-05-03T09:17:29;15.70;99.90
18189;DHT22;9219;50.396;8.546;2023-05-03T09:19:58;15.30;99.90
18189;DHT22;9219;50.396;8.546;2023-05-03T09:28:00;14.10;99.90
18189;DHT22;9219;50.396;8.546;2023-05-03T09:30:28;12.90;99.90
18189;DHT22;9219;50.396;8.546;2023-05-03T09:32:55;13.10;99.90
18189;DHT22;9219;50.396;8.546;2023-05-03T09:35:23;13.60;99.90
18189;DHT22;9219;50.396;8.546;2023-05-03T09:37:51;13.40;99.90
18189;DHT22;9219;50.396;8.546;2023-05-03T09:40:18;13.50;99.90
18189;DHT22;9219;50.396;8.546;2023-05-03T09:43:05;13.40;99.90
18189;DHT22;9219;50.396;8.546;2023-05-03T09:48:26;14.30;99.90
18189;DHT22;9219;50.396;8.546;2023-05-03T09:50:54;15.30;99.90
18189;DHT22;9219;50.396;8.546;2023-05-03T09:53:22;15.80;99.90
18189;DHT22;9219;50.396;8.546;2023-05-03T09:55:50;15.80;99.90
18189;DHT22;9219;50.396;8.546;2023-05-03T09:58:18;15.10;99.90
18189;DHT22;9219;50.396;8.546;2023-05-03T10:00:48;15.80;99.90
18189;DHT22;9219;50.396;8.546;2023-05-03T10:03:23;16.70;99.90
18189;DHT22;9219;50.396;8.546;2023-05-03T10:05:52;16.60;99.90
18189;DHT22;9219;50.396;8.546;2023-05-03T10:13:28;17.90;99.90
18189;DHT22;9219;50.396;8.546;2023-05-03T10:15:59;17.40;99.90
18189;DHT22;9219;50.396;8.546;2023-05-03T10:18:31;17.20;99.90
18189;DHT22;9219;50.396;8.546;2023-05-03T10:21:06;17.70;99.90
18189;DHT22;9219;50.396;8.546;2023-05-03T10:23:36;17.60;99.90
18189;DHT22;9219;50.396;8.546;2023-05-03T10:26:24;18.20;99.90
18189;DHT22;9219;50.396;8.546;2023-05-03T10:28:53;18.80;99.90
18189;DHT22;9219;50.396;8.546;2023-05-03T10:36:47;19.70;99.90
18189;DHT22;9219;50.396;8.546;2023-05-03T10:39:16;18.50;99.90
18189;DHT22;9219;50.396;8.546;2023-05-03T10:41:44;18.50;99.90
18189;DHT22;9219;50.396;8.546;2023-05-03T10:44:32;18.30;99.90
18189;DHT22;9219;50.396;8.546;2023-05-03T10:47:09;17.20;99.90
18189;DHT22;9219;50.396;8.546;2023-05-03T10:49:38;16.30;99.90
18189;DHT22;9219;50.396;8.546;2023-05-03T11:02:00;16.80;99.90
18189;DHT22;9219;50.396;8.546;2023-05-03T11:04:40;15.90;99.90
18189;DHT22;9219;50.396;8.546;2023-05-03T11:07:09;15.60;99.90
18189;DHT22;9219;50.396;8.546;2023-05-03T11:09:38;15.70;99.90
18189;DHT22;9219;50.396;8.546;2023-05-03T11:12:06;15.90;99.90
18189;DHT22;9219;50.396;8.546;2023-05-03T11:14:34;16.90;99.90
18189;DHT22;9219;50.396;8.546;2023-05-03T11:17:04;17.40;99.90
18189;DHT22;9219;50.396;8.546;2023-05-03T11:22:27;18.60;99.90
18189;DHT22;9219;50.396;8.546;2023-05-03T11:24:56;17.80;99.90
18189;DHT22;9219;50.396;8.546;2023-05-03T11:27:25;17.10;99.90
18189;DHT22;9219;50.396;8.546;2023-05-03T11:29:54;16.70;99.90
18189;DHT22;9219;50.396;8.546;2023-05-03T11:32:27;16.30;99.90
18189;DHT22;9219;50.396;8.546;2023-05-03T11:35:00;16.60;99.90
18189;DHT22;9219;50.396;8.546;2023-05-03T11:37:31;16.50;99.90
18189;DHT22;9219;50.396;8.546;2023-05-03T11:39:59;16.40;99.90
18189;DHT22;9219;50.396;8.546;2023-05-03T11:47:32;16.30;99.90
18189;DHT22;9219;50.396;8.546;2023-05-03T11:50:05;16.20;99.90
18189;DHT22;9219;50.396;8.546;2023-05-03T11:52:38;16.10;99.90
18189;DHT22;9219;50.396;8.546;2023-05-03T11:55:06;16.10;99.90
18189;DHT22;9219;50.396;8.546;2023-05-03T11:57:36;16.50;99.90
18189;DHT22;9219;50.396;8.546;2023-05-03T12:00:11;16.30;99.90
18189;DHT22;9219;50.396;8.546;2023-05-03T12:02:47;16.10;99.90
18189;DHT22;9219;50.396;8.546;2023-05-03T12:08:20;16.80;99.90
18189;DHT22;9219;50.396;8.546;2023-05-03T12:10:51;17.20;99.90
18189;DHT22;9219;50.396;8.546;2023-05-03T12:13:27;17.60;99.90
18189;DHT22;9219;50.396;8.546;2023-05-03T12:16:00;17.20;99.90
18189;DHT22;9219;50.396;8.546;2023-05-03T12:18:44;17.00;99.90
18189;DHT22;9219;50.396;8.546;2023-05-03T12:21:14;17.40;99.90
18189;DHT22;9219;50.396;8.546;2023-05-03T12:23:46;18.00;99.90
18189;DHT22;9219;50.396;8.546;2023-05-03T12:31:22;18.10;99.90
18189;DHT22;9219;50.396;8.546;2023-05-03T12:33:50;17.90;99.90
18189;DHT22;9219;50.396;8.546;2023-05-03T12:36:21;18.70;99.90
18189;DHT22;9219;50.396;8.546;2023-05-03T12:38:52;19.40;99.90
18189;DHT22;9219;50.396;8.546;2023-05-03T12:41:22;19.80;99.90
18189;DHT22;9219;50.396;8.546;2023-05-03T12:44:16;20.60;99.90
18189;DHT22;9219;50.396;8.546;2023-05-03T12:46:50;21.20;98.60
18189;DHT22;9219;50.396;8.546;2023-05-03T12:54:27;21.90;96.80
18189;DHT22;9219;50.396;8.546;2023-05-03T12:57:00;21.90;95.20
18189;DHT22;9219;50.396;8.546;2023-05-03T12:59:35;22.20;95.20
18189;DHT22;9219;50.396;8.546;2023-05-03T13:02:08;21.90;96.00
18189;DHT22;9219;50.396;8.546;2023-05-03T13:04:39;21.60;94.50
18189;DHT22;9219;50.396;8.546;2023-05-03T13:07:10;21.90;94.70
18189;DHT22;9219;50.396;8.546;2023-05-03T13:09:44;21.80;95.80
18189;DHT22;9219;50.396;8.546;2023-05-03T13:15:38;22.40;94.70
18189;DHT22;9219;50.396;8.546;2023-05-03T13:18:10;22.20;92.30
18189;DHT22;9219;50.396;8.546;2023-05-03T13:20:43;21.70;95.20
18189;DHT22;9219;50.396;8.546;2023-05-03T13:23:10;21.70;94.80
18189;DHT22;9219;50.396;8.546;2023-05-03T13:25:38;21.70;94.10
18189;DHT22;9219;50.396;8.546;2023-05-03T13:28:06;21.80;93.70
18189;DHT22;9219;50.396;8.546;2023-05-03T13:30:35;21.80;94.80
18189;DHT22;9219;50.396;8.546;2023-05-03T13:38:08;21.90;94.30
18189;DHT22;9219;50.396;8.546;2023-05-03T13:40:39;21.30;95.00
18189;DHT22;9219;50.396;8.546;2023-05-03T13:43:12;21.10;92.30
18189;DHT22;9219;50.396;8.546;2023-05-03T13:45:40;21.30;94.60
18189;DHT22;9219;50.396;8.546;2023-05-03T13:48:07;21.30;95.30
18189;DHT22;9219;50.396;8.546;2023-05-03T13:50:47;21.00;94.50
18189;DHT22;9219;50.396;8.546;2023-05-03T13:53:18;21.00;94.30
18189;DHT22;9219;50.396;8.546;2023-05-03T14:00:53;20.80;95.80
18189;DHT22;9219;50.396;8.546;2023-05-03T14:03:21;20.40;94.90
18189;DHT22;9219;50.396;8.546;2023-05-03T14:05:53;20.00;94.10
18189;DHT22;9219;50.396;8.546;2023-05-03T14:08:22;20.30;93.40
18189;DHT22;9219;50.396;8.546;2023-05-03T14:10:51;20.50;94.60
18189;DHT22;9219;50.396;8.546;2023-05-03T14:13:20;20.60;94.20
18189;DHT22;9219;50.396;8.546;2023-05-03T14:15:48;20.60;93.40
18189;DHT22;9219;50.396;8.546;2023-05-03T14:18:17;20.60;94.70
18189;DHT22;9219;50.396;8.546;2023-05-03T14:26:06;20.20;95.70
18189;DHT22;9219;50.396;8.546;2023-05-03T14:28:34;20.60;96.00
18189;DHT22;9219;50.396;8.546;2023-05-03T14:31:03;20.50;95.00
18189;DHT22;9219;50.396;8.546;2023-05-03T14:33:36;20.70;94.40
18189;DHT22;9219;50.396;8.546;2023-05-03T14:36:06;20.40;94.30
18189;DHT22;9219;50.396;8.546;2023-05-03T14:38:34;20.50;95.30
18189;DHT22;9219;50.396;8.546;2023-05-03T14:41:02;20.50;96.40
18189;DHT22;9219;50.396;8.546;2023-05-03T14:46:32;20.50;95.40
18189;DHT22;9219;50.396;8.546;2023-05-03T14:49:00;20.50;94.70
18189;DHT22;9219;50.396;8.546;2023-05-03T14:51:31;20.40;95.50
18189;DHT22;9219;50.396;8.546;2023-05-03T14:54:05;20.50;95.80
18189;DHT22;9219;50.396;8.546;2023-05-03T14:56:35;20.50;94.90
18189;DHT22;9219;50.396;8.546;2023-05-03T14:59:04;20.30;95.30
18189;DHT22;9219;50.396;8.546;2023-05-03T15:01:37;20.20;96.10
18189;DHT22;9219;50.396;8.546;2023-05-03T15:06:46;20.20;96.30
18189;DHT22;9219;50.396;8.546;2023-05-03T15:09:17;20.00;95.00
18189;DHT22;9219;50.396;8.546;2023-05-03T15:11:46;20.00;97.00
18189;DHT22;9219;50.396;8.546;2023-05-03T15:14:17;19.90;96.00
18189;DHT22;9219;50.396;8.546;2023-05-03T15:16:48;20.00;96.10
18189;DHT22;9219;50.396;8.546;2023-05-03T15:19:17;20.40;96.00
18189;DHT22;9219;50.396;8.546;2023-05-03T15:21:47;20.40;96.80
18189;DHT22;9219;50.396;8.546;2023-05-03T15:27:27;20.60;95.50
18189;DHT22;9219;50.396;8.546;2023-05-03T15:29:58;20.50;95.50
18189;DHT22;9219;50.396;8.546;2023-05-03T15:32:30;20.40;96.00
18189;DHT22;9219;50.396;8.546;2023-05-03T15:34:59;20.50;96.00
18189;DHT22;9219;50.396;8.546;2023-05-03T15:37:33;20.40;95.60
18189;DHT22;9219;50.396;8.546;2023-05-03T15:40:02;20.40;95.80
18189;DHT22;9219;50.396;8.546;2023-05-03T15:42:32;20.20;96.40
18189;DHT22;9219;50.396;8.546;2023-05-03T15:52:24;20.00;97.10
18189;DHT22;9219;50.396;8.546;2023-05-03T15:54:55;20.00;98.40
18189;DHT22;9219;50.396;8.546;2023-05-03T15:57:24;19.80;96.30
18189;DHT22;9219;50.396;8.546;2023-05-03T15:59:58;20.00;96.40
18189;DHT22;9219;50.396;8.546;2023-05-03T16:02:28;20.20;97.60
18189;DHT22;9219;50.396;8.546;2023-05-03T16:04:58;20.40;96.40
18189;DHT22;9219;50.396;8.546;2023-05-03T16:07:30;20.10;97.30
18189;DHT22;9219;50.396;8.546;2023-05-03T16:17:07;20.30;97.00
18189;DHT22;9219;50.396;8.546;2023-05-03T16:19:38;20.40;96.70
18189;DHT22;9219;50.396;8.546;2023-05-03T16:22:10;20.10;97.30
18189;DHT22;9219;50.396;8.546;2023-05-03T16:24:42;19.80;96.50
18189;DHT22;9219;50.396;8.546;2023-05-03T16:27:13;20.10;97.40
18189;DHT22;9219;50.396;8.546;2023-05-03T16:29:44;19.80;95.70
18189;DHT22;9219;50.396;8.546;2023-05-03T16:32:16;20.00;97.40
18189;DHT22;9219;50.396;8.546;2023-05-03T16:37:27;20.10;97.30
18189;DHT22;9219;50.396;8.546;2023-05-03T16:39:59;20.30;95.50
18189;DHT22;9219;50.396;8.546;2023-05-03T16:42:32;20.10;95.70
18189;DHT22;9219;50.396;8.546;2023-05-03T16:45:01;20.10;97.60
18189;DHT22;9219;50.396;8.546;2023-05-03T16:47:29;20.10;96.80
18189;DHT22;9219;50.396;8.546;2023-05-03T16:49:59;20.00;96.00
18189;DHT22;9219;50.396;8.546;2023-05-03T16:52:29;20.00;97.10
18189;DHT22;9219;50.396;8.546;2023-05-03T16:58:13;19.80;96.40
18189;DHT22;9219;50.396;8.546;2023-05-03T17:00:44;19.60;96.60
18189;DHT22;9219;50.396;8.546;2023-05-03T17:03:17;19.60;95.80
18189;DHT22;9219;50.396;8.546;2023-05-03T17:05:49;19.30;95.90
18189;DHT22;9219;50.396;8.546;2023-05-03T17:08:24;19.30;97.20
18189;DHT22;9219;50.396;8.546;2023-05-03T17:10:53;19.60;96.20
18189;DHT22;9219;50.396;8.546;2023-05-03T17:13:26;19.50;97.40
18189;DHT22;9219;50.396;8.546;2023-05-03T17:21:04;19.60;96.40
18189;DHT22;9219;50.396;8.546;2023-05-03T17:23:36;19.40;96.70
18189;DHT22;9219;50.396;8.546;2023-05-03T17:26:06;19.50;97.00
18189;DHT22;9219;50.396;8.546;2023-05-03T17:28:37;19.50;96.80
18189;DHT22;9219;50.396;8.546;2023-05-03T17:31:08;19.50;95.70
18189;DHT22;9219;50.396;8.546;2023-05-03T17:33:43;19.40;96.70
18189;DHT22;9219;50.396;8.546;2023-05-03T17:36:16;19.40;96.70
18189;DHT22;9219;50.396;8.546;2023-05-03T17:45:42;19.20;96.80
18189;DHT22;9219;50.396;8.546;2023-05-03T17:48:12;19.40;94.80
18189;DHT22;9219;50.396;8.546;2023-05-03T17:50:44;19.30;95.40
18189;DHT22;9219;50.396;8.546;2023-05-03T17:53:15;19.10;97.30
18189;DHT22;9219;50.396;8.546;2023-05-03T17:55:46;19.20;96.10
18189;DHT22;9219;50.396;8.546;2023-05-03T17:58:20;19.10;95.60
18189;DHT22;9219;50.396;8.546;2023-05-03T18:00:50;18.90;96.00
18189;DHT22;9219;50.396;8.546;2023-05-03T18:08:22;18.70;96.10
18189;DHT22;9219;50.396;8.546;2023-05-03T18:10:54;18.80;95.80
18189;DHT22;9219;50.396;8.546;2023-05-03T18:13:23;18.70;96.20
18189;DHT22;9219;50.396;8.546;2023-05-03T18:15:53;18.70;96.90
18189;DHT22;9219;50.396;8.546;2023-05-03T18:18:25;18.60;96.60
18189;DHT22;9219;50.396;8.546;2023-05-03T18:20:58;18.70;97.80
18189;DHT22;9219;50.396;8.546;2023-05-03T18:23:31;18.70;96.70
18189;DHT22;9219;50.396;8.546;2023-05-03T18:33:17;18.40;96.30
18189;DHT22;9219;50.396;8.546;2023-05-03T18:35:49;18.30;97.10
18189;DHT22;9219;50.396;8.546;2023-05-03T18:38:18;18.30;97.90
18189;DHT22;9219;50.396;8.546;2023-05-03T18:40:50;18.20;97.80
18189;DHT22;9219;50.396;8.546;2023-05-03T18:43:23;18.30;97.50
18189;DHT22;9219;50.396;8.546;2023-05-03T18:45:52;18.20;97.30
18189;DHT22;9219;50.396;8.546;2023-05-03T18:48:24;18.20;97.80
18189;DHT22;9219;50.396;8.546;2023-05-03T18:53:36;18.10;96.10
18189;DHT22;9219;50.396;8.546;2023-05-03T18:56:08;17.90;97.10
18189;DHT22;9219;50.396;8.546;2023-05-03T18:58:46;17.80;96.90
18189;DHT22;9219;50.396;8.546;2023-05-03T19:01:16;17.70;96.90
18189;DHT22;9219;50.396;8.546;2023-05-03T19:03:51;17.60;97.10
18189;DHT22;9219;50.396;8.546;2023-05-03T19:06:22;17.50;97.40
18189;DHT22;9219;50.396;8.546;2023-05-03T19:08:58;17.50;97.10
18189;DHT22;9219;50.396;8.546;2023-05-03T19:16:46;17.20;96.10
18189;DHT22;9219;50.396;8.546;2023-05-03T19:19:18;17.10;96.50
18189;DHT22;9219;50.396;8.546;2023-05-03T19:21:53;17.00;97.10
18189;DHT22;9219;50.396;8.546;2023-05-03T19:24:25;17.00;96.40
18189;DHT22;9219;50.396;8.546;2023-05-03T19:27:01;16.80;96.90
18189;DHT22;9219;50.396;8.546;2023-05-03T19:29:38;16.80;97.20
18189;DHT22;9219;50.396;8.546;2023-05-03T19:32:11;16.80;97.50
18189;DHT22;9219;50.396;8.546;2023-05-03T19:34:45;16.70;97.00
18189;DHT22;9219;50.396;8.546;2023-05-03T19:42:23;16.70;96.90
18189;DHT22;9219;50.396;8.546;2023-05-03T19:44:57;16.40;96.90
18189;DHT22;9219;50.396;8.546;2023-05-03T19:47:30;16.30;96.90
18189;DHT22;9219;50.396;8.546;2023-05-03T19:50:01;16.20;95.90
18189;DHT22;9219;50.396;8.546;2023-05-03T19:52:36;16.20;97.10
18189;DHT22;9219;50.396;8.546;2023-05-03T19:55:10;16.20;97.60
18189;DHT22;9219;50.396;8.546;2023-05-03T19:57:41;16.20;97.50
18189;DHT22;9219;50.396;8.546;2023-05-03T20:02:54;16.10;97.80
18189;DHT22;9219;50.396;8.546;2023-05-03T20:05:27;16.10;98.00
18189;DHT22;9219;50.396;8.546;2023-05-03T20:08:23;16.00;97.80
18189;DHT22;9219;50.396;8.546;2023-05-03T20:10:57;16.10;97.50
18189;DHT22;9219;50.396;8.546;2023-05-03T20:13:29;16.00;97.60
18189;DHT22;9219;50.396;8.546;2023-05-03T20:16:01;15.90;98.20
18189;DHT22;9219;50.396;8.546;2023-05-03T20:18:36;15.90;98.00
18189;DHT22;9219;50.396;8.546;2023-05-03T20:26:11;15.70;99.10